PWSweather.com
Personal Weather Stations
Station Observations
VPOKROGLO
Kal Nad Kanalom, PrimorskaSI

Kal Nad KanalomPrimorskaSI

Lat: 46.072, Lon: 13.734

Elevation: 2526

Station Type: WS-2355

http://www.okroglovreme.com

Latest ConditionsUpdated 8:15:01 PM GMT+01:01 Sunday, Apr 19, 2015
Currently Today's Max Today's Min Today's Average
Temperature 43.9°F6.6°C 55.9°F13.3°C 34.0°F1.1°C 39.6°F4.2°C
Dew Point 32.5°F0.3°C 35.9°F2.2°C 29.0°F-1.7°C 31.6°F-0.2°C
Winds 0.2 mph WNW0.3 kmh WNW 6.3 mph SE10.1 kmh SE - 2.1 mph 3.4 kmh
Wind Gusts 2.2 mph3.5 kmh 15.0 mph24.1 kmh - -
Humidity 64% 86% 43% 75%
Pressure 30.11 in1019.6 mb 30.15 in1021.0 mb 30.06 in1017.9 mb -
Hour Temp Dew Point Humidity Winds Wind Gusts Pressure Precip Precip Rate Daily Precip Total
08:15 PM 43.9°F6.6°C 32.5°F0.3°C 64% 0.2 mph WNW0.3 kmh WNW 2.2 mph3.5 kmh 30.11 in1019.6 mb 0.00 in0.0 mm 0.00 in0.0 mm 0.00 in0.0 mm
08:00 PM 44.4°F6.9°C 32.6°F0.3°C 63% 0.4 mph NW0.6 kmh NW 2.7 mph4.3 kmh 30.11 in1019.6 mb 0.00 in0.0 mm 0.00 in0.0 mm 0.00 in0.0 mm
07:45 PM 44.8°F7.1°C 32.9°F0.5°C 63% 0.2 mph WNW0.3 kmh WNW 2.0 mph3.2 kmh 30.10 in1019.3 mb 0.00 in0.0 mm 0.00 in0.0 mm 0.00 in0.0 mm
07:30 PM 45.1°F7.3°C 32.9°F0.5°C 62% 0.4 mph NW0.6 kmh NW 3.1 mph5.0 kmh 30.09 in1019.0 mb 0.00 in0.0 mm 0.00 in0.0 mm 0.00 in0.0 mm
07:15 PM 45.5°F7.5°C 32.8°F0.4°C 61% 0.2 mph SW0.3 kmh SW 2.0 mph3.2 kmh 30.09 in1019.0 mb 0.00 in0.0 mm 0.00 in0.0 mm 0.00 in0.0 mm
07:00 PM 46.9°F8.3°C 32.9°F0.5°C 58% 0.7 mph S1.1 kmh S 2.9 mph4.7 kmh 30.09 in1019.0 mb 0.00 in0.0 mm 0.00 in0.0 mm 0.00 in0.0 mm
06:45 PM 49.5°F9.7°C 34.0°F1.1°C 55% 0.4 mph S0.6 kmh S 2.9 mph4.7 kmh 30.08 in1018.6 mb 0.00 in0.0 mm 0.00 in0.0 mm 0.00 in0.0 mm
06:30 PM 50.7°F10.4°C 35.1°F1.7°C 55% 0.1 mph SW0.2 kmh SW 2.0 mph3.2 kmh 30.08 in1018.6 mb 0.00 in0.0 mm 0.00 in0.0 mm 0.00 in0.0 mm
06:15 PM 50.4°F10.2°C 35.2°F1.8°C 56% 0.9 mph SW1.4 kmh SW 4.5 mph7.2 kmh 30.08 in1018.6 mb 0.00 in0.0 mm 0.00 in0.0 mm 0.00 in0.0 mm
06:00 PM 50.4°F10.2°C 35.7°F2.1°C 57% 2.7 mph SW4.3 kmh SW 6.3 mph10.1 kmh 30.08 in1018.6 mb 0.00 in0.0 mm 0.00 in0.0 mm 0.00 in0.0 mm
05:45 PM 51.1°F10.6°C 35.9°F2.2°C 56% 3.2 mph SW5.1 kmh SW 8.9 mph14.3 kmh 30.07 in1018.3 mb 0.00 in0.0 mm 0.00 in0.0 mm 0.00 in0.0 mm
05:30 PM 52.0°F11.1°C 35.4°F1.9°C 53% 3.1 mph WSW5.0 kmh WSW 6.5 mph10.5 kmh 30.07 in1018.3 mb 0.00 in0.0 mm 0.00 in0.0 mm 0.00 in0.0 mm
05:15 PM 53.8°F12.1°C 35.1°F1.7°C 49% 1.1 mph W1.8 kmh W 3.8 mph6.1 kmh 30.06 in1017.9 mb 0.00 in0.0 mm 0.00 in0.0 mm 0.00 in0.0 mm
05:00 PM 53.8°F12.1°C 34.0°F1.1°C 47% 1.4 mph SW2.3 kmh SW 6.9 mph11.1 kmh 30.06 in1017.9 mb 0.00 in0.0 mm 0.00 in0.0 mm 0.00 in0.0 mm
04:45 PM 54.5°F12.5°C 33.6°F0.9°C 45% 1.1 mph NW1.8 kmh NW 4.0 mph6.4 kmh 30.06 in1017.9 mb 0.00 in0.0 mm 0.00 in0.0 mm 0.00 in0.0 mm
04:30 PM 55.9°F13.3°C 34.3°F1.3°C 44% 1.1 mph N1.8 kmh N 5.8 mph9.3 kmh 30.07 in1018.3 mb 0.00 in0.0 mm 0.00 in0.0 mm 0.00 in0.0 mm
04:15 PM 55.9°F13.3°C 33.7°F0.9°C 43% 0.8 mph NNE1.3 kmh NNE 3.1 mph5.0 kmh 30.07 in1018.3 mb 0.00 in0.0 mm 0.00 in0.0 mm 0.00 in0.0 mm
04:00 PM 55.2°F12.9°C 35.3°F1.8°C 47% 1.1 mph NW1.8 kmh NW 4.7 mph7.6 kmh 30.07 in1018.3 mb 0.00 in0.0 mm 0.00 in0.0 mm 0.00 in0.0 mm
03:45 PM 55.9°F13.3°C 34.9°F1.6°C 45% 0.9 mph N1.4 kmh N 3.6 mph5.8 kmh 30.07 in1018.3 mb 0.00 in0.0 mm 0.00 in0.0 mm 0.00 in0.0 mm
03:30 PM 53.8°F12.1°C 35.1°F1.7°C 49% 0.7 mph SW1.1 kmh SW 4.0 mph6.4 kmh 30.07 in1018.3 mb 0.00 in0.0 mm 0.00 in0.0 mm 0.00 in0.0 mm
03:15 PM 54.3°F12.4°C 34.5°F1.4°C 47% 1.0 mph NW1.6 kmh NW 3.8 mph6.1 kmh 30.08 in1018.6 mb 0.00 in0.0 mm 0.00 in0.0 mm 0.00 in0.0 mm
03:00 PM 53.4°F11.9°C 33.1°F0.6°C 46% 0.7 mph N1.1 kmh N 2.9 mph4.7 kmh 30.08 in1018.6 mb 0.00 in0.0 mm 0.00 in0.0 mm 0.00 in0.0 mm
02:45 PM 52.5°F11.4°C 32.9°F0.5°C 47% 2.0 mph N3.2 kmh N 5.8 mph9.3 kmh 30.09 in1019.0 mb 0.00 in0.0 mm 0.00 in0.0 mm 0.00 in0.0 mm
02:30 PM 53.8°F12.1°C 34.5°F1.4°C 48% 1.5 mph NNE2.4 kmh NNE 4.7 mph7.6 kmh 30.10 in1019.3 mb 0.00 in0.0 mm 0.00 in0.0 mm 0.00 in0.0 mm
02:15 PM 53.2°F11.8°C 33.5°F0.8°C 47% 1.7 mph N2.7 kmh N 7.2 mph11.6 kmh 30.10 in1019.3 mb 0.00 in0.0 mm 0.00 in0.0 mm 0.00 in0.0 mm
02:00 PM 52.3°F11.3°C 32.7°F0.4°C 47% 1.8 mph NW2.9 kmh NW 6.3 mph10.1 kmh 30.10 in1019.3 mb 0.00 in0.0 mm 0.00 in0.0 mm 0.00 in0.0 mm
01:45 PM 51.4°F10.8°C 33.9°F1.1°C 51% 2.0 mph S3.2 kmh S 8.7 mph14.0 kmh 30.11 in1019.6 mb 0.00 in0.0 mm 0.00 in0.0 mm 0.00 in0.0 mm
01:30 PM 50.9°F10.5°C 33.9°F1.1°C 52% 2.1 mph S3.4 kmh S 8.7 mph14.0 kmh 30.11 in1019.6 mb 0.00 in0.0 mm 0.00 in0.0 mm 0.00 in0.0 mm
01:15 PM 49.8°F9.9°C 34.7°F1.5°C 56% 1.9 mph SW3.1 kmh SW 6.3 mph10.1 kmh 30.12 in1020.0 mb 0.00 in0.0 mm 0.00 in0.0 mm 0.00 in0.0 mm
01:00 PM 49.6°F9.8°C 35.0°F1.7°C 57% 2.0 mph NNE3.2 kmh NNE 7.8 mph12.6 kmh 30.12 in1020.0 mb 0.00 in0.0 mm 0.00 in0.0 mm 0.00 in0.0 mm
12:45 PM 49.3°F9.6°C 31.9°F-0.1°C 51% 2.0 mph NNE3.2 kmh NNE 9.2 mph14.8 kmh 30.12 in1020.0 mb 0.00 in0.0 mm 0.00 in0.0 mm 0.00 in0.0 mm
12:30 PM 48.7°F9.3°C 32.8°F0.4°C 54% 3.0 mph NNE4.8 kmh NNE 10.5 mph16.9 kmh 30.12 in1020.0 mb 0.00 in0.0 mm 0.00 in0.0 mm 0.00 in0.0 mm
12:15 PM 47.8°F8.8°C 34.2°F1.2°C 59% 2.6 mph S4.2 kmh S 9.6 mph15.4 kmh 30.12 in1020.0 mb 0.00 in0.0 mm 0.00 in0.0 mm 0.00 in0.0 mm
12:00 PM 47.5°F8.6°C 33.4°F0.8°C 58% 3.5 mph S5.6 kmh S 8.9 mph14.3 kmh 30.13 in1020.3 mb 0.00 in0.0 mm 0.00 in0.0 mm 0.00 in0.0 mm
11:45 AM 48.0°F8.9°C 32.6°F0.3°C 55% 1.7 mph SSE2.7 kmh SSE 8.9 mph14.3 kmh 30.13 in1020.3 mb 0.00 in0.0 mm 0.00 in0.0 mm 0.00 in0.0 mm
11:30 AM 46.0°F7.8°C 32.9°F0.5°C 60% 1.5 mph S2.4 kmh S 8.1 mph13.0 kmh 30.14 in1020.7 mb 0.00 in0.0 mm 0.00 in0.0 mm 0.00 in0.0 mm
11:15 AM 44.4°F6.9°C 31.4°F-0.3°C 60% 3.0 mph NE4.8 kmh NE 13.2 mph21.2 kmh 30.14 in1020.7 mb 0.00 in0.0 mm 0.00 in0.0 mm 0.00 in0.0 mm
11:00 AM 44.4°F6.9°C 32.2°F0.1°C 62% 1.7 mph N2.7 kmh N 9.6 mph15.4 kmh 30.14 in1020.7 mb 0.00 in0.0 mm 0.00 in0.0 mm 0.00 in0.0 mm
10:45 AM 43.3°F6.3°C 30.4°F-0.9°C 60% 3.4 mph NNE5.5 kmh NNE 15.0 mph24.1 kmh 30.14 in1020.7 mb 0.00 in0.0 mm 0.00 in0.0 mm 0.00 in0.0 mm
10:30 AM 42.6°F5.9°C 31.3°F-0.4°C 64% 3.5 mph NNW5.6 kmh NNW 10.5 mph16.9 kmh 30.14 in1020.7 mb 0.00 in0.0 mm 0.00 in0.0 mm 0.00 in0.0 mm
10:15 AM 42.1°F5.6°C 31.2°F-0.4°C 65% 2.3 mph ENE3.7 kmh ENE 11.4 mph18.3 kmh 30.13 in1020.3 mb 0.00 in0.0 mm 0.00 in0.0 mm 0.00 in0.0 mm
10:00 AM 41.5°F5.3°C 30.3°F-0.9°C 64% 3.1 mph NNE5.0 kmh NNE 9.6 mph15.4 kmh 30.13 in1020.3 mb 0.00 in0.0 mm 0.00 in0.0 mm 0.00 in0.0 mm
09:45 AM 41.2°F5.1°C 30.3°F-0.9°C 65% 2.6 mph NNE4.2 kmh NNE 11.9 mph19.2 kmh 30.13 in1020.3 mb 0.00 in0.0 mm 0.00 in0.0 mm 0.00 in0.0 mm
09:30 AM 40.8°F4.9°C 30.0°F-1.1°C 65% 2.6 mph N4.2 kmh N 11.4 mph18.3 kmh 30.13 in1020.3 mb 0.00 in0.0 mm 0.00 in0.0 mm 0.00 in0.0 mm
09:15 AM 40.3°F4.6°C 30.2°F-1.0°C 67% 3.1 mph NNE5.0 kmh NNE 10.3 mph16.6 kmh 30.13 in1020.3 mb 0.00 in0.0 mm 0.00 in0.0 mm 0.00 in0.0 mm
09:00 AM 39.9°F4.4°C 29.5°F-1.4°C 66% 3.3 mph NE5.3 kmh NE 11.6 mph18.7 kmh 30.13 in1020.3 mb 0.00 in0.0 mm 0.00 in0.0 mm 0.00 in0.0 mm
08:45 AM 39.7°F4.3°C 30.0°F-1.1°C 68% 2.5 mph ENE4.0 kmh ENE 10.1 mph16.3 kmh 30.13 in1020.3 mb 0.00 in0.0 mm 0.00 in0.0 mm 0.00 in0.0 mm
08:30 AM 39.0°F3.9°C 30.1°F-1.1°C 70% 2.6 mph SSE4.2 kmh SSE 6.9 mph11.1 kmh 30.12 in1020.0 mb 0.00 in0.0 mm 0.00 in0.0 mm 0.00 in0.0 mm
08:15 AM 38.5°F3.6°C 30.2°F-1.0°C 72% 1.9 mph N3.1 kmh N 11.0 mph17.7 kmh 30.13 in1020.3 mb 0.00 in0.0 mm 0.00 in0.0 mm 0.00 in0.0 mm
08:00 AM 37.6°F3.1°C 29.7°F-1.3°C 73% 2.6 mph NNE4.2 kmh NNE 11.4 mph18.3 kmh 30.13 in1020.3 mb 0.00 in0.0 mm 0.00 in0.0 mm 0.00 in0.0 mm
07:45 AM 36.5°F2.5°C 29.7°F-1.3°C 76% 2.7 mph NE4.3 kmh NE 13.0 mph20.9 kmh 30.13 in1020.3 mb 0.00 in0.0 mm 0.00 in0.0 mm 0.00 in0.0 mm
07:30 AM 36.0°F2.2°C 29.4°F-1.4°C 77% 3.1 mph E5.0 kmh E 10.1 mph16.3 kmh 30.13 in1020.3 mb 0.00 in0.0 mm 0.00 in0.0 mm 0.00 in0.0 mm
07:15 AM 35.6°F2.0°C 29.1°F-1.6°C 77% 2.7 mph NE4.3 kmh NE 8.3 mph13.4 kmh 30.12 in1020.0 mb 0.00 in0.0 mm 0.00 in0.0 mm 0.00 in0.0 mm
07:00 AM 35.2°F1.8°C 29.4°F-1.4°C 79% 2.4 mph NE3.9 kmh NE 7.4 mph11.9 kmh 30.12 in1020.0 mb 0.00 in0.0 mm 0.00 in0.0 mm 0.00 in0.0 mm
06:45 AM 34.9°F1.6°C 29.0°F-1.7°C 79% 3.7 mph NE6.0 kmh NE 11.0 mph17.7 kmh 30.12 in1020.0 mb 0.00 in0.0 mm 0.00 in0.0 mm 0.00 in0.0 mm
06:30 AM 34.5°F1.4°C 29.0°F-1.7°C 80% 2.4 mph E3.9 kmh E 8.1 mph13.0 kmh 30.12 in1020.0 mb 0.00 in0.0 mm 0.00 in0.0 mm 0.00 in0.0 mm
06:15 AM 34.3°F1.3°C 29.1°F-1.6°C 81% 1.7 mph N2.7 kmh N 5.8 mph9.3 kmh 30.12 in1020.0 mb 0.00 in0.0 mm 0.00 in0.0 mm 0.00 in0.0 mm
06:04 AM 34.3°F1.3°C 30.3°F-0.9°C 85% Calm Calm -- 30.12 in1020.0 mb 0.00 in0.0 mm 0.00 in0.0 mm 0.00 in0.0 mm
06:03 AM 36.0°F2.2°C 32.2°F0.1°C 86% Calm Calm -- 30.15 in1021.0 mb 0.00 in0.0 mm 0.00 in0.0 mm 0.00 in0.0 mm
06:02 AM 36.3°F2.4°C 32.2°F0.1°C 85% 0.7 mph NE1.1 kmh NE 2.0 mph3.2 kmh 30.15 in1021.0 mb 0.00 in0.0 mm 0.00 in0.0 mm 0.37 in9.4 mm
06:01 AM 34.3°F1.3°C 29.1°F-1.6°C 81% 2.4 mph NNE3.9 kmh NNE 4.0 mph6.4 kmh 30.12 in1020.0 mb 0.00 in0.0 mm 0.00 in0.0 mm 0.00 in0.0 mm
05:56 AM 34.3°F1.3°C 29.1°F-1.6°C 81% 2.6 mph N4.2 kmh N 4.0 mph6.4 kmh 30.12 in1020.0 mb 0.00 in0.0 mm 0.00 in0.0 mm 0.00 in0.0 mm
05:51 AM 34.3°F1.3°C 29.1°F-1.6°C 81% 2.6 mph N4.2 kmh N 4.0 mph6.4 kmh 30.12 in1020.0 mb 0.00 in0.0 mm 0.00 in0.0 mm 0.00 in0.0 mm